Time;durP1;ratioP1;P1;durP2;ratioP2;P2;SDS_P1;SDS_P2;PMS_P1;PMS_P2;Temp;Humidity;BMP_temperature;BMP_pressure;BME280_temperature;BME280_humidity;BME280_pressure;Samples;Min_cycle;Max_cycle;Signal;HPM_P1;HPM_P2
2023/02/07 00:01:13;;;;;;;14.82;3.08;;;;;;;1.92;68.02;102364.31;5009893;28;20148;-47
2023/02/07 00:03:40;;;;;;;7.88;2.80;;;;;;;1.93;67.28;102358.44;5011552;28;20097;-50
2023/02/07 00:06:09;;;;;;;7.95;3.40;;;;;;;1.92;68.45;102367.75;5015222;28;20131;-48
2023/02/07 00:08:37;;;;;;;7.97;3.45;;;;;;;1.93;67.78;102371.22;5011364;28;20046;-49
2023/02/07 00:11:06;;;;;;;11.95;3.80;;;;;;;1.87;66.64;102360.56;5009533;28;20438;-49
2023/02/07 00:13:33;;;;;;;13.10;3.63;;;;;;;1.78;67.20;102360.78;4997703;28;20545;-48
2023/02/07 00:16:01;;;;;;;10.15;3.05;;;;;;;1.69;67.20;102363.56;5000628;28;20533;-50
2023/02/07 00:18:27;;;;;;;8.20;3.53;;;;;;;1.64;67.93;102350.50;5002763;28;20701;-48
2023/02/07 00:21:05;;;;;;;13.80;3.75;;;;;;;1.62;67.46;102362.25;5005274;28;20065;-49
2023/02/07 00:23:33;;;;;;;12.02;3.67;;;;;;;1.61;67.33;102351.91;5019369;28;20081;-50
2023/02/07 00:26:00;;;;;;;8.38;3.38;;;;;;;1.60;68.14;102355.25;5007428;28;20104;-47
2023/02/07 00:28:27;;;;;;;10.70;3.47;;;;;;;1.59;68.29;102350.94;5003323;28;20074;-49
2023/02/07 00:31:12;;;;;;;11.35;3.33;;;;;;;1.57;67.14;102352.47;5006020;28;20052;-52
2023/02/07 00:33:40;;;;;;;12.25;3.50;;;;;;;1.59;68.37;102356.06;5002139;28;20064;-50
2023/02/07 00:36:10;;;;;;;11.85;3.33;;;;;;;1.47;67.45;102356.03;5004238;28;20058;-49
2023/02/07 00:38:36;;;;;;;8.98;3.92;;;;;;;1.39;68.50;102358.06;5006648;28;20093;-51
2023/02/07 00:41:03;;;;;;;10.25;3.88;;;;;;;1.30;67.21;102359.94;5007869;28;20100;-49
2023/02/07 00:43:30;;;;;;;9.85;3.35;;;;;;;1.22;67.88;102360.25;5008737;28;20073;-48
2023/02/07 00:45:58;;;;;;;14.55;3.60;;;;;;;1.13;67.77;102362.16;5005853;28;20049;-50
2023/02/07 00:48:26;;;;;;;14.13;4.05;;;;;;;1.07;67.45;102364.22;5005593;28;20053;-49
2023/02/07 00:50:53;;;;;;;11.07;3.05;;;;;;;1.01;67.89;102362.13;5005227;28;20065;-48
2023/02/07 00:53:21;;;;;;;7.32;3.47;;;;;;;0.93;68.19;102366.66;5004981;28;20046;-49
2023/02/07 00:55:48;;;;;;;12.32;3.50;;;;;;;0.83;67.75;102371.84;5008149;28;20161;-51
2023/02/07 00:58:14;;;;;;;14.40;4.13;;;;;;;0.70;67.72;102378.59;5007337;28;20076;-50
2023/02/07 01:00:41;;;;;;;11.65;3.92;;;;;;;0.61;67.69;102367.72;5007959;28;20129;-52
2023/02/07 01:03:08;;;;;;;8.40;3.30;;;;;;;0.54;68.41;102371.44;5006691;28;20046;-47
2023/02/07 01:05:35;;;;;;;15.52;4.72;;;;;;;0.49;68.22;102368.56;5007552;28;20045;-49
2023/02/07 01:08:02;;;;;;;10.50;4.68;;;;;;;0.47;67.65;102364.97;5007067;28;20061;-52
2023/02/07 01:10:29;;;;;;;9.15;4.32;;;;;;;0.47;68.22;102375.19;5006337;28;20046;-49
2023/02/07 01:12:55;;;;;;;10.80;4.32;;;;;;;0.45;68.52;102371.66;5005201;28;20652;-48
2023/02/07 01:15:22;;;;;;;15.45;4.15;;;;;;;0.45;67.73;102366.53;5014392;28;20125;-50
2023/02/07 01:17:49;;;;;;;12.95;3.67;;;;;;;0.45;68.40;102365.66;5008935;28;20073;-48
2023/02/07 01:20:17;;;;;;;13.68;3.13;;;;;;;0.44;67.77;102359.63;5006419;28;20049;-48
2023/02/07 01:22:45;;;;;;;9.52;3.22;;;;;;;0.43;68.21;102357.88;5006112;28;20050;-50
2023/02/07 01:25:13;;;;;;;10.40;3.10;;;;;;;0.43;68.19;102354.41;5006079;28;20142;-51
2023/02/07 01:27:41;;;;;;;9.85;3.95;;;;;;;0.43;68.28;102362.06;5007037;28;20467;-53
2023/02/07 01:30:10;;;;;;;7.40;3.05;;;;;;;0.43;68.08;102362.06;5004734;28;20045;-50
2023/02/07 01:32:38;;;;;;;8.10;3.72;;;;;;;0.41;68.16;102364.53;5004505;28;20052;-48
2023/02/07 01:35:06;;;;;;;14.43;3.45;;;;;;;0.41;68.06;102358.53;5003481;28;20054;-48
2023/02/07 01:37:35;;;;;;;10.32;3.47;;;;;;;0.41;68.35;102351.78;5006495;28;20079;-49
2023/02/07 01:40:04;;;;;;;6.65;3.17;;;;;;;0.41;68.56;102349.22;5005201;28;20046;-51
2023/02/07 01:42:32;;;;;;;13.13;4.10;;;;;;;0.40;68.16;102357.63;5005604;28;20054;-51
2023/02/07 01:45:04;;;;;;;9.88;3.78;;;;;;;0.40;68.44;102355.09;5009243;28;20041;-48
2023/02/07 01:47:36;;;;;;;11.43;3.50;;;;;;;0.41;69.04;102348.34;5018904;28;20049;-51
2023/02/07 01:50:04;;;;;;;13.98;4.18;;;;;;;0.41;67.84;102341.59;5025097;28;20049;-50
2023/02/07 01:52:37;;;;;;;15.02;3.40;;;;;;;0.41;68.98;102349.22;5025783;28;20468;-50
2023/02/07 01:55:09;;;;;;;15.32;4.22;;;;;;;0.43;68.98;102347.69;5018937;28;20548;-48
2023/02/07 01:57:36;;;;;;;16.90;3.40;;;;;;;0.44;68.41;102344.34;5024739;28;20069;-50
2023/02/07 02:00:04;;;;;;;10.52;3.03;;;;;;;0.44;68.55;102354.53;5023826;28;20088;-51
2023/02/07 02:02:34;;;;;;;13.93;3.78;;;;;;;0.45;69.18;102355.44;5022533;28;20129;-48
2023/02/07 02:05:02;;;;;;;9.73;4.10;;;;;;;0.44;68.84;102352.00;5033913;28;20443;-51
2023/02/07 02:07:31;;;;;;;12.25;3.58;;;;;;;0.43;68.29;102341.66;5024686;28;20128;-49
2023/02/07 02:09:59;;;;;;;10.80;3.95;;;;;;;0.42;68.69;102339.91;5024318;28;20049;-48
2023/02/07 02:12:51;;;;;;;11.50;3.20;;;;;;;0.41;68.32;102349.22;5021934;28;20050;-47
2023/02/07 02:21:17;;;;;;;15.95;4.03;;;;;;;0.61;69.19;102343.06;5046065;27;20406;-49
2023/02/07 02:26:43;;;;;;;10.23;3.60;;;;;;;0.57;69.69;102340.19;5050550;28;20404;-48
2023/02/07 02:29:30;;;;;;;;;;;;;;;0.53;69.97;102333.97;5015933;28;20120;-47
2023/02/07 02:40:40;;;;;;;16.75;6.43;;;;;;;0.92;69.18;102341.94;5027274;27;20415;-47
2023/02/07 02:43:17;;;;;;;17.33;4.28;;;;;;;0.74;69.90;102342.34;4995277;28;20670;-47
2023/02/07 02:45:49;;;;;;;15.73;4.25;;;;;;;0.64;69.29;102337.31;5000361;28;20080;-47
2023/02/07 02:48:16;;;;;;;16.55;4.05;;;;;;;0.56;69.15;102353.69;5009031;28;20041;-47
2023/02/07 02:50:45;;;;;;;9.02;3.85;;;;;;;0.43;69.80;102352.78;5011021;28;20077;-47
2023/02/07 02:53:13;;;;;;;9.82;3.83;;;;;;;0.33;69.07;102345.19;5016970;28;20049;-48
2023/02/07 02:58:49;;;;;;;10.52;4.63;;;;;;;0.18;69.12;102343.25;5011853;27;20403;-49
2023/02/07 03:04:26;;;;;;;12.68;3.85;;;;;;;0.13;69.38;102357.28;5024372;28;20430;-48
2023/02/07 03:16:13;;;;;;;7.57;3.47;;;;;;;0.01;69.73;102351.25;5091845;27;20413;-49
2023/02/07 03:21:25;;;;;;;12.35;4.68;;;;;;;-0.11;69.29;102352.06;5042669;27;20432;-48
2023/02/07 03:23:56;;;;;;;11.00;3.63;;;;;;;-0.15;69.38;102350.06;5017140;28;20380;-48
2023/02/07 03:26:24;;;;;;;12.13;3.97;;;;;;;-0.20;68.89;102348.81;5017181;28;20073;-47
2023/02/07 03:28:53;;;;;;;11.52;4.50;;;;;;;-0.20;69.38;102356.47;5018520;28;20073;-51
2023/02/07 03:31:24;;;;;;;11.65;3.85;;;;;;;-0.20;69.62;102351.34;5015667;28;20124;-49
2023/02/07 03:33:57;;;;;;;9.45;3.83;;;;;;;-0.24;69.39;102349.34;5012811;28;20049;-46
2023/02/07 03:36:32;;;;;;;12.45;5.13;;;;;;;-0.27;69.21;102355.97;5017242;28;20054;-50
2023/02/07 03:38:59;;;;;;;13.23;3.88;;;;;;;-0.29;69.24;102362.59;5016491;28;20100;-47
2023/02/07 03:41:32;;;;;;;8.88;4.55;;;;;;;-0.30;69.27;102360.81;5014730;28;20698;-52
2023/02/07 03:44:05;;;;;;;13.32;4.35;;;;;;;-0.29;69.30;102357.50;5014931;28;20140;-48
2023/02/07 03:46:35;;;;;;;14.48;4.38;;;;;;;-0.32;69.38;102353.81;5016719;28;20049;-49
2023/02/07 03:49:03;;;;;;;7.47;3.50;;;;;;;-0.35;69.30;102359.56;5012579;28;20045;-48
2023/02/07 03:51:30;;;;;;;11.88;4.20;;;;;;;-0.38;69.25;102359.31;5014729;28;20608;-51
2023/02/07 03:53:56;;;;;;;15.48;6.63;;;;;;;-0.39;69.29;102365.19;5015282;28;20121;-51
2023/02/07 03:56:23;;;;;;;9.05;4.10;;;;;;;-0.41;69.79;102361.59;5018650;28;20076;-49
2023/02/07 03:58:50;;;;;;;14.27;3.65;;;;;;;-0.42;69.77;102354.75;5019285;28;20050;-48
2023/02/07 04:01:16;;;;;;;9.25;4.07;;;;;;;-0.43;69.55;102352.97;5017387;28;20049;-47
2023/02/07 04:03:43;;;;;;;10.00;3.67;;;;;;;-0.43;69.44;102358.06;5016122;28;20132;-50
2023/02/07 04:06:10;;;;;;;15.07;4.10;;;;;;;-0.42;69.69;102355.66;5008308;28;20054;-48
2023/02/07 04:08:36;;;;;;;12.27;4.88;;;;;;;-0.41;70.21;102353.97;5019237;28;20104;-51
2023/02/07 04:11:03;;;;;;;12.80;3.95;;;;;;;-0.43;69.75;102353.88;5016381;28;20077;-51
2023/02/07 04:13:30;;;;;;;12.55;3.67;;;;;;;-0.44;69.55;102351.19;5006585;28;20066;-46
2023/02/07 04:15:57;;;;;;;10.73;4.07;;;;;;;-0.46;69.64;102347.63;5016168;28;20046;-48
2023/02/07 04:18:24;;;;;;;8.90;3.40;;;;;;;-0.47;69.80;102346.72;5013598;28;20042;-48
2023/02/07 04:20:50;;;;;;;11.60;4.18;;;;;;;-0.49;69.74;102352.47;5015285;28;20141;-47
2023/02/07 04:23:17;;;;;;;9.40;3.50;;;;;;;-0.49;69.79;102349.94;5014101;28;20050;-48
2023/02/07 04:25:43;;;;;;;11.20;4.57;;;;;;;-0.53;69.79;102362.41;5014537;28;20141;-49
2023/02/07 04:28:10;;;;;;;7.07;3.45;;;;;;;-0.59;69.74;102348.31;5012662;28;20421;-49
2023/02/07 04:30:36;;;;;;;12.45;5.13;;;;;;;-0.62;69.52;102346.41;5011744;28;20073;-51
2023/02/07 04:33:04;;;;;;;14.93;3.38;;;;;;;-0.66;69.73;102341.84;5000961;28;20594;-49
2023/02/07 04:35:30;;;;;;;9.82;4.72;;;;;;;-0.68;69.52;102341.72;5003190;28;20121;-50
2023/02/07 04:37:57;;;;;;;17.08;4.85;;;;;;;-0.66;69.89;102342.75;5002531;28;20078;-50
2023/02/07 04:40:23;;;;;;;12.48;3.67;;;;;;;-0.66;70.05;102344.38;5004540;28;20072;-51
2023/02/07 04:42:50;;;;;;;18.33;4.07;;;;;;;-0.66;69.98;102342.75;5000801;28;20049;-49
2023/02/07 04:45:17;;;;;;;10.13;5.20;;;;;;;-0.65;70.09;102343.59;5000491;28;20085;-51
2023/02/07 04:47:43;;;;;;;10.18;3.38;;;;;;;-0.65;69.76;102346.16;4997343;28;20046;-48
2023/02/07 04:50:10;;;;;;;17.65;5.28;;;;;;;-0.66;69.99;102350.38;5003623;28;20050;-49
2023/02/07 04:52:39;;;;;;;12.45;4.78;;;;;;;-0.65;69.92;102341.97;5001890;28;20674;-49
2023/02/07 04:55:06;;;;;;;20.30;4.15;;;;;;;-0.65;70.14;102347.06;4997864;28;20716;-49
2023/02/07 04:57:33;;;;;;;14.85;3.40;;;;;;;-0.65;70.00;102351.25;4998675;28;20078;-47
2023/02/07 05:00:00;;;;;;;8.80;3.92;;;;;;;-0.66;69.99;102344.38;4995553;28;20078;-47
2023/02/07 05:02:27;;;;;;;14.05;5.40;;;;;;;-0.65;69.79;102346.16;4994166;28;20042;-47
2023/02/07 05:04:53;;;;;;;7.35;3.40;;;;;;;-0.65;70.31;102346.16;4999765;28;20103;-46
2023/02/07 05:07:20;;;;;;;16.77;3.83;;;;;;;-0.65;69.80;102346.16;4999455;28;20078;-48
2023/02/07 05:09:46;;;;;;;13.60;4.55;;;;;;;-0.65;70.37;102341.97;4996706;28;20043;-48
2023/02/07 05:12:13;;;;;;;18.67;5.13;;;;;;;-0.65;70.31;102341.06;5002617;28;20501;-47
2023/02/07 05:14:40;;;;;;;10.15;4.05;;;;;;;-0.66;70.42;102340.19;4993928;28;20046;-48
2023/02/07 05:17:06;;;;;;;16.98;5.82;;;;;;;-0.65;70.21;102338.50;5000629;28;20116;-47
2023/02/07 05:19:33;;;;;;;10.13;5.35;;;;;;;-0.65;70.30;102330.88;4999819;28;20137;-49
2023/02/07 05:21:59;;;;;;;14.57;3.92;;;;;;;-0.63;70.48;102331.91;5001342;28;20462;-47
2023/02/07 05:24:26;;;;;;;11.07;4.20;;;;;;;-0.62;70.88;102331.13;5004656;28;20137;-49
2023/02/07 05:26:52;;;;;;;12.48;4.38;;;;;;;-0.61;70.80;102330.34;5000567;28;20058;-48
2023/02/07 05:29:19;;;;;;;11.50;4.20;;;;;;;-0.61;70.23;102321.84;4999768;28;20085;-48
2023/02/07 05:34:32;;;;;;;10.63;3.88;;;;;;;-0.61;70.91;102327.81;4998009;28;20049;-47
2023/02/07 05:36:59;;;;;;;10.35;3.83;;;;;;;-0.62;70.97;102328.59;4997342;28;20623;-48
2023/02/07 05:39:25;;;;;;;12.55;4.55;;;;;;;-0.63;70.55;102331.00;4997983;28;20125;-47
2023/02/07 05:41:52;;;;;;;13.25;4.82;;;;;;;-0.64;70.62;102332.69;5000910;28;20112;-47
2023/02/07 05:44:18;;;;;;;15.63;4.57;;;;;;;-0.66;70.68;102327.47;4996821;28;20774;-47
2023/02/07 05:46:45;;;;;;;10.60;4.35;;;;;;;-0.68;70.78;102335.72;4992454;28;20078;-50
2023/02/07 05:49:12;;;;;;;10.65;4.05;;;;;;;-0.67;70.38;102337.53;5005409;28;20092;-47
2023/02/07 05:51:38;;;;;;;18.63;5.78;;;;;;;-0.69;70.73;102333.94;4993932;28;20053;-48
2023/02/07 05:54:05;;;;;;;9.77;4.88;;;;;;;-0.71;70.82;102335.50;5000677;28;20066;-46
2023/02/07 05:56:31;;;;;;;10.30;4.07;;;;;;;-0.74;70.76;102342.88;4998895;28;20096;-47
2023/02/07 05:58:58;;;;;;;15.43;5.65;;;;;;;-0.76;70.72;102342.75;4997240;28;20076;-46
2023/02/07 06:01:24;;;;;;;11.13;3.70;;;;;;;-0.78;70.44;102344.28;4999661;28;20066;-48
2023/02/07 06:03:51;;;;;;;11.52;5.25;;;;;;;-0.82;70.72;102353.31;4993238;28;20133;-50
2023/02/07 06:06:18;;;;;;;10.93;3.55;;;;;;;-0.85;70.49;102347.13;4993451;28;20046;-50
2023/02/07 06:08:44;;;;;;;19.98;6.28;;;;;;;-0.90;70.77;102339.09;4996423;28;20076;-48
2023/02/07 06:11:11;;;;;;;13.18;4.70;;;;;;;-0.92;70.66;102338.06;4990687;28;20180;-48
2023/02/07 06:13:38;;;;;;;17.50;5.00;;;;;;;-0.94;70.53;102342.16;4998758;28;20112;-49
2023/02/07 06:16:05;;;;;;;12.43;5.40;;;;;;;-0.97;70.44;102349.53;5000628;28;20103;-49
2023/02/07 06:18:31;;;;;;;14.82;5.18;;;;;;;-0.98;70.39;102350.31;4998649;28;20511;-50
2023/02/07 06:20:58;;;;;;;11.07;3.78;;;;;;;-1.02;70.59;102348.28;4998005;28;20593;-49
2023/02/07 06:23:24;;;;;;;7.90;3.15;;;;;;;-1.05;70.49;102343.81;5000717;28;20100;-48
2023/02/07 06:25:51;;;;;;;7.95;3.35;;;;;;;-1.07;70.70;102343.72;5001505;28;20117;-47
2023/02/07 06:28:17;;;;;;;12.70;5.47;;;;;;;-1.10;70.73;102346.00;4998546;28;20046;-50
2023/02/07 06:30:44;;;;;;;17.63;5.18;;;;;;;-1.10;70.58;102340.91;4993459;28;20069;-47
2023/02/07 06:33:11;;;;;;;7.13;4.97;;;;;;;-1.14;70.33;102333.78;4986961;28;20078;-47
2023/02/07 06:35:38;;;;;;;15.10;3.75;;;;;;;-1.13;70.76;102335.56;4973109;28;20050;-49
2023/02/07 06:38:05;;;;;;;16.10;3.63;;;;;;;-1.14;71.21;102338.88;4982682;28;20046;-47
2023/02/07 06:40:31;;;;;;;9.40;4.07;;;;;;;-1.16;70.26;102330.22;4981512;28;20058;-48
2023/02/07 06:42:58;;;;;;;18.13;4.55;;;;;;;-1.17;70.58;102334.44;4980874;28;20050;-48
2023/02/07 06:45:24;;;;;;;10.13;5.57;;;;;;;-1.17;70.75;102334.44;4980285;28;20648;-47
2023/02/07 06:47:51;;;;;;;13.52;5.03;;;;;;;-1.17;70.64;102331.88;4977585;28;20865;-48
2023/02/07 06:50:17;;;;;;;12.10;4.88;;;;;;;-1.18;70.96;102332.63;4983547;28;20069;-49
2023/02/07 06:52:44;;;;;;;20.23;7.32;;;;;;;-1.17;71.31;102338.63;4979191;28;20751;-47
2023/02/07 06:55:11;;;;;;;17.42;6.78;;;;;;;-1.14;70.71;102354.13;4977247;28;20054;-50
2023/02/07 06:57:37;;;;;;;14.50;5.80;;;;;;;-1.14;70.84;102354.13;4979190;28;20073;-52
2023/02/07 07:00:05;;;;;;;16.80;6.38;;;;;;;-1.14;71.07;102355.78;4981431;28;20120;-50
2023/02/07 07:02:31;;;;;;;15.00;6.20;;;;;;;-1.15;70.73;102352.34;4996914;28;20069;-48
2023/02/07 07:04:58;;;;;;;9.85;5.75;;;;;;;-1.15;71.12;102359.09;4997042;28;20050;-49
2023/02/07 07:07:25;;;;;;;14.00;5.82;;;;;;;-1.14;70.86;102359.22;4996637;28;20062;-48
2023/02/07 07:09:51;;;;;;;14.90;5.95;;;;;;;-1.12;71.57;102360.22;4999075;28;20129;-48
2023/02/07 07:12:18;;;;;;;18.27;5.63;;;;;;;-1.10;70.93;102368.88;4998164;28;20050;-48
2023/02/07 07:14:44;;;;;;;13.88;6.30;;;;;;;-1.09;71.06;102370.66;4998709;28;20046;-47
2023/02/07 07:17:11;;;;;;;14.52;6.22;;;;;;;-1.10;71.34;102371.44;4998248;28;20077;-50
2023/02/07 07:19:38;;;;;;;15.82;5.45;;;;;;;-1.09;71.50;102375.75;4991525;28;20081;-49
2023/02/07 07:22:04;;;;;;;18.08;5.72;;;;;;;-1.07;71.52;102375.88;4990741;28;20093;-50
2023/02/07 07:24:31;;;;;;;18.00;6.78;;;;;;;-1.04;71.15;102381.22;4993343;28;20043;-49
2023/02/07 07:26:58;;;;;;;20.67;7.13;;;;;;;-1.03;71.28;102377.91;4997270;28;20073;-48
2023/02/07 07:29:24;;;;;;;18.38;6.65;;;;;;;-1.04;71.41;102382.09;4997246;28;20092;-50
2023/02/07 07:31:51;;;;;;;22.92;8.98;;;;;;;-1.04;71.54;102382.09;4993161;28;20100;-50
2023/02/07 07:34:17;;;;;;;18.00;6.38;;;;;;;-1.02;71.85;102388.97;4996249;28;20050;-49
2023/02/07 07:36:44;;;;;;;15.38;6.32;;;;;;;-1.07;71.37;102394.59;4998213;28;20053;-49
2023/02/07 07:39:12;;;;;;;11.88;6.68;;;;;;;-1.08;71.18;102400.41;4996889;28;20081;-48
2023/02/07 07:41:38;;;;;;;15.32;7.22;;;;;;;-1.10;71.35;102396.88;4993992;28;20064;-49
2023/02/07 07:44:05;;;;;;;18.65;7.88;;;;;;;-1.08;71.61;102400.41;4994250;28;20081;-51
2023/02/07 07:46:31;;;;;;;17.45;8.80;;;;;;;-1.08;71.25;102402.09;4994204;28;20689;-52
2023/02/07 07:48:58;;;;;;;23.63;8.15;;;;;;;-1.09;71.59;102393.56;4995552;28;20477;-52
2023/02/07 07:51:25;;;;;;;17.20;7.65;;;;;;;-1.10;71.37;102401.06;4999793;28;20145;-48
2023/02/07 07:53:51;;;;;;;24.27;6.95;;;;;;;-1.09;71.88;102391.00;4998752;28;20104;-52
2023/02/07 07:56:18;;;;;;;8.32;3.83;;;;;;;-1.07;71.20;102391.13;4996062;28;20050;-49
2023/02/07 07:58:44;;;;;;;10.63;4.82;;;;;;;-1.10;71.17;102396.88;4997928;28;20074;-49
2023/02/07 08:01:11;;;;;;;12.00;3.60;;;;;;;-1.11;70.98;102400.19;4996376;28;20129;-50
2023/02/07 08:03:37;;;;;;;10.18;5.70;;;;;;;-1.10;70.72;102401.94;4996424;28;20050;-50
2023/02/07 08:06:05;;;;;;;19.30;6.93;;;;;;;-1.07;71.34;102407.31;4993620;28;20062;-51
2023/02/07 08:08:32;;;;;;;18.75;7.57;;;;;;;-1.00;71.10;102397.63;4999729;28;20081;-50
2023/02/07 08:11:01;;;;;;;28.67;7.72;;;;;;;-0.88;70.79;102393.53;5000676;28;20485;-53
2023/02/07 08:13:27;;;;;;;24.83;10.77;;;;;;;-0.48;71.77;102405.19;4994942;28;20078;-52
2023/02/07 08:15:58;;;;;;;52.17;21.02;;;;;;;-0.03;71.64;102407.06;5000439;28;20042;-49
2023/02/07 08:18:24;;;;;;;43.20;17.27;;;;;;;0.43;71.25;102398.66;4998232;28;20041;-49
2023/02/07 08:20:51;;;;;;;42.22;16.52;;;;;;;0.97;70.54;102401.84;4994215;28;21794;-50
2023/02/07 08:23:18;;;;;;;36.50;16.70;;;;;;;1.46;70.99;102400.25;4995609;28;20142;-49
2023/02/07 08:25:45;;;;;;;25.33;10.98;;;;;;;1.87;69.16;102404.00;4999840;28;20127;-52
2023/02/07 08:28:12;;;;;;;25.90;9.25;;;;;;;2.43;68.84;102398.50;4995700;28;20124;-49
2023/02/07 08:30:39;;;;;;;27.33;9.82;;;;;;;3.11;68.27;102400.41;5000152;28;20156;-48
2023/02/07 08:33:06;;;;;;;25.20;9.68;;;;;;;3.89;68.25;102405.34;5001917;28;20050;-52
2023/02/07 08:35:33;;;;;;;26.40;10.02;;;;;;;4.60;67.22;102399.38;5002336;28;20081;-50
2023/02/07 08:37:59;;;;;;;27.13;10.30;;;;;;;5.35;66.97;102405.38;4998342;28;20819;-50
2023/02/07 08:40:26;;;;;;;31.40;10.85;;;;;;;6.08;65.48;102404.25;4995801;28;20666;-53
2023/02/07 08:42:53;;;;;;;35.03;11.30;;;;;;;6.74;64.69;102392.19;5003035;28;20049;-53
2023/02/07 08:45:19;;;;;;;28.58;10.50;;;;;;;7.32;63.55;102388.16;5001451;28;20050;-54
2023/02/07 08:47:46;;;;;;;32.72;10.77;;;;;;;7.86;63.68;102392.41;5000540;28;20045;-53
2023/02/07 08:50:14;;;;;;;38.20;12.23;;;;;;;8.37;61.97;102398.97;4993533;28;20054;-50
2023/02/07 08:52:41;;;;;;;38.85;12.35;;;;;;;8.77;61.62;102396.38;4998943;28;20512;-53
2023/02/07 08:55:07;;;;;;;27.38;10.15;;;;;;;9.05;61.14;102393.25;4999748;28;20084;-51
2023/02/07 09:08:44;;;;;;;21.73;6.72;;;;;;;11.69;59.15;102397.44;5055980;28;19971;-52
2023/02/07 09:11:11;;;;;;;16.88;7.72;;;;;;;12.29;57.81;102392.28;5058292;28;20044;-51
2023/02/07 09:13:37;;;;;;;15.75;6.78;;;;;;;12.96;56.74;102388.78;5054655;28;20040;-54
2023/02/07 09:16:04;;;;;;;17.33;7.25;;;;;;;13.64;55.26;102381.72;5051003;28;20561;-52
2023/02/07 09:18:31;;;;;;;20.05;7.82;;;;;;;14.31;54.30;102390.00;5060108;28;20113;-52
2023/02/07 09:20:57;;;;;;;19.70;7.47;;;;;;;14.92;52.93;102393.75;5060941;28;20045;-48
2023/02/07 09:23:24;;;;;;;19.13;9.18;;;;;;;15.43;52.24;102397.16;5054483;28;20643;-53
2023/02/07 09:25:52;;;;;;;20.13;7.93;;;;;;;15.99;50.86;102382.25;5055454;28;20045;-50
2023/02/07 09:28:21;;;;;;;21.45;7.72;;;;;;;16.60;50.00;102390.75;5049298;28;20573;-47
2023/02/07 09:30:47;;;;;;;19.45;7.93;;;;;;;17.15;49.09;102384.25;5060463;28;20066;-53
2023/02/07 09:33:15;;;;;;;23.90;8.43;;;;;;;17.68;48.96;102389.81;5062995;28;20491;-52
2023/02/07 09:35:45;;;;;;;21.77;8.85;;;;;;;18.13;47.87;102390.91;5065502;28;20045;-48
2023/02/07 09:38:14;;;;;;;24.25;9.05;;;;;;;18.61;46.57;102377.88;5028543;28;20080;-50
2023/02/07 09:40:42;;;;;;;20.35;9.05;;;;;;;19.05;46.45;102381.34;5057977;28;20123;-51
2023/02/07 09:45:51;;;;;;;29.40;12.43;;;;;;;19.91;44.80;102381.16;5036524;27;20402;-55
2023/02/07 09:48:23;;;;;;;37.17;16.52;;;;;;;20.26;44.15;102376.59;5017088;28;20053;-52
2023/02/07 09:50:55;;;;;;;68.38;27.60;;;;;;;20.59;43.21;102379.88;5018014;28;20080;-54
2023/02/07 09:53:26;;;;;;;32.42;14.63;;;;;;;20.94;43.20;102375.25;5018796;28;20126;-54
2023/02/07 09:55:58;;;;;;;31.30;13.65;;;;;;;21.29;41.77;102371.41;5013347;28;20053;-54
2023/02/07 10:01:28;;;;;;;28.83;14.80;;;;;;;21.80;41.19;102374.34;5023532;27;20907;-54
2023/02/07 10:06:56;;;;;;;41.28;21.92;;;;;;;21.97;36.92;102384.66;5074171;27;20407;-55
2023/02/07 10:09:27;;;;;;;60.38;25.58;;;;;;;22.24;38.65;102387.81;5060742;28;20044;-54
2023/02/07 10:12:04;;;;;;;48.28;22.05;;;;;;;22.50;38.51;102394.47;5055479;28;20072;-54
2023/02/07 10:20:02;;;;;;;18.33;9.88;;;;;;;22.97;37.30;102409.59;5035069;27;20414;-49
2023/02/07 10:28:35;;;;;;;33.90;15.13;;;;;;;23.31;37.22;102393.13;5028252;27;20402;-54
2023/02/07 10:31:10;;;;;;;22.55;11.25;;;;;;;23.39;36.41;102394.75;5012386;28;20136;-54
2023/02/07 10:33:42;;;;;;;24.08;10.68;;;;;;;23.27;35.72;102401.97;5019140;28;20042;-56
2023/02/07 10:36:13;;;;;;;20.70;9.75;;;;;;;23.08;35.77;102405.00;5010350;28;20045;-54
2023/02/07 10:41:23;;;;;;;20.95;10.45;;;;;;;22.84;36.49;102412.41;5062790;28;20379;-53
2023/02/07 10:43:50;;;;;;;22.48;9.57;;;;;;;22.84;36.25;102415.06;5049515;28;20136;-51
2023/02/07 10:46:19;;;;;;;19.55;8.82;;;;;;;22.56;35.21;102412.88;5042647;28;20076;-53
2023/02/07 10:48:46;;;;;;;24.63;10.80;;;;;;;22.27;35.81;102416.81;5035569;28;20059;-51
2023/02/07 10:51:26;;;;;;;26.75;10.73;;;;;;;22.05;35.25;102419.72;5041147;28;20053;-53
2023/02/07 10:54:12;;;;;;;24.02;10.13;;;;;;;21.68;34.40;102420.16;5040603;28;20563;-50
2023/02/07 10:56:43;;;;;;;22.48;11.15;;;;;;;21.22;35.70;102417.16;5038839;28;20107;-52
2023/02/07 10:59:45;;;;;;;21.20;10.07;;;;;;;20.49;36.04;102421.19;5037696;28;20080;-52
2023/02/07 11:10:39;;;;;;;25.23;12.93;;;;;;;17.30;40.04;102419.28;5025488;27;20410;-50
2023/02/07 11:13:25;;;;;;;21.00;11.32;;;;;;;16.62;40.69;102414.31;5027894;28;20103;-51
2023/02/07 11:15:58;;;;;;;20.83;11.25;;;;;;;16.16;41.48;102411.22;5020708;28;20049;-48
2023/02/07 11:21:06;;;;;;;23.33;9.95;;;;;;;15.09;42.73;102402.72;5025362;28;20401;-52
2023/02/07 11:23:33;;;;;;;24.40;8.98;;;;;;;14.60;43.71;102398.41;4959591;28;20082;-51
2023/02/07 11:26:02;;;;;;;20.67;9.00;;;;;;;14.16;44.66;102401.91;4962982;28;20149;-52
2023/02/07 11:28:31;;;;;;;20.05;9.20;;;;;;;13.75;44.34;102410.63;4980227;28;20046;-52
2023/02/07 11:31:04;;;;;;;18.55;7.78;;;;;;;13.39;45.68;102401.97;4982039;28;20074;-51
2023/02/07 11:33:35;;;;;;;17.75;7.15;;;;;;;13.02;46.32;102386.34;4980537;28;20050;-53
2023/02/07 11:36:22;;;;;;;15.38;7.03;;;;;;;12.57;47.42;102383.47;4982354;28;20051;-50
2023/02/07 11:38:53;;;;;;;19.42;6.75;;;;;;;12.29;47.38;102387.94;4977209;28;20490;-50
2023/02/07 11:46:38;;;;;;;10.52;6.60;;;;;;;11.81;48.40;102360.56;5045404;27;20377;-50
2023/02/07 11:49:08;;;;;;;15.60;5.72;;;;;;;11.60;49.02;102363.41;5022590;28;20712;-50
2023/02/07 11:51:35;;;;;;;14.48;5.97;;;;;;;11.41;49.97;102358.53;5028492;28;20484;-51
2023/02/07 11:54:05;;;;;;;12.63;7.25;;;;;;;11.22;49.28;102362.28;5022107;28;20111;-52
2023/02/07 11:56:37;;;;;;;12.82;6.88;;;;;;;10.96;50.00;102359.72;5022572;28;20049;-48
2023/02/07 11:59:11;;;;;;;13.07;8.00;;;;;;;10.82;50.83;102353.19;5022275;28;20455;-48
2023/02/07 12:01:38;;;;;;;16.13;7.63;;;;;;;10.64;51.19;102362.13;5021548;28;20080;-49
2023/02/07 12:04:14;;;;;;;17.95;7.55;;;;;;;10.59;51.62;102361.06;5020301;28;20049;-52
2023/02/07 16:05:40;;;;;;;;;;;;;;;7.84;58.80;102285.69;5039927;28;20134;-50
2023/02/07 16:08:34;;;;;;;101.95;28.45;;;;;;;7.86;59.67;102284.03;5039552;28;20299;-47
2023/02/07 16:16:46;;;;;;;54.22;15.80;;;;;;;7.78;58.89;102275.06;5076448;27;20780;-51
2023/02/07 16:22:00;;;;;;;25.27;7.75;;;;;;;7.65;60.17;102269.38;5080587;27;20411;-50
2023/02/07 16:24:27;;;;;;;16.50;5.18;;;;;;;7.59;59.17;102269.06;5046948;28;20045;-50
2023/02/07 16:26:54;;;;;;;21.92;6.68;;;;;;;7.54;59.41;102270.56;5058592;28;20114;-51
2023/02/07 16:29:25;;;;;;;16.23;5.95;;;;;;;7.47;59.75;102272.00;5056198;28;20053;-48
2023/02/07 16:31:53;;;;;;;24.08;8.20;;;;;;;7.40;60.05;102263.06;5056008;28;20072;-49
2023/02/07 16:34:20;;;;;;;20.80;6.93;;;;;;;7.35;60.66;102262.00;5055613;28;20044;-49
2023/02/07 16:36:49;;;;;;;27.33;7.80;;;;;;;7.29;60.61;102274.56;5062820;28;20079;-51
2023/02/07 16:39:16;;;;;;;33.22;12.10;;;;;;;7.22;60.90;102269.97;5058995;28;20474;-52
2023/02/07 16:41:46;;;;;;;32.40;11.85;;;;;;;7.14;60.97;102260.19;5060588;28;20072;-47
2023/02/07 16:44:17;;;;;;;31.85;13.48;;;;;;;7.07;60.55;102269.28;5061375;28;20540;-52
2023/02/07 16:46:43;;;;;;;31.90;12.65;;;;;;;7.00;60.31;102276.66;5057084;28;20087;-48
2023/02/07 16:49:15;;;;;;;36.85;14.20;;;;;;;6.94;60.92;102277.25;5060676;28;20041;-48
2023/02/07 16:51:42;;;;;;;25.77;9.68;;;;;;;6.88;60.75;102269.22;5058409;28;20577;-51
2023/02/07 16:54:09;;;;;;;22.88;9.13;;;;;;;6.81;60.71;102274.09;5059495;28;20094;-50
2023/02/07 16:56:36;;;;;;;23.33;9.52;;;;;;;6.75;61.96;102278.06;5067329;28;20072;-48
2023/02/07 16:59:03;;;;;;;20.02;8.57;;;;;;;6.68;60.88;102285.50;5058358;28;20611;-51
2023/02/07 17:01:30;;;;;;;21.70;8.63;;;;;;;6.61;60.77;102283.41;5058294;28;20044;-50